Terminal Aerodrome Forecast
Issued by NWS Amarillo, TX

Home | Current Version | Previous Version | Text Only | Print | Product List | Glossary On
Versions: 1 2 3 4 5 6 7 8 9 10 11 12 13 14
000
FTUS44 KAMA 072100 AAA
TAFAMA
TAF AMD
KAMA 072100Z 0721/0818 01018G23KT P6SM BKN300
     FM080000 01011KT P6SM SCT300
     FM080600 33008KT P6SM SKC=

USA.gov is the U.S. government's official web portal to all federal, state and local government web resources and services.